Time;durP1;ratioP1;P1;durP2;ratioP2;P2;SDS_P1;SDS_P2;PMS_P1;PMS_P2;Temp;Humidity;BMP_temperature;BMP_pressure;BME280_temperature;BME280_humidity;BME280_pressure;Samples;Min_cycle;Max_cycle;Signal;HPM_P1;HPM_P2
2021/05/01 00:00:38;;;;;;;23.10;21.30;;;;;;;7.98;78.44;100291.19;5042769;28;20200;-77
2021/05/01 00:03:04;;;;;;;26.43;24.03;;;;;;;7.91;78.91;100295.63;5050630;28;20260;-75
2021/05/01 00:05:31;;;;;;;24.17;21.97;;;;;;;7.82;78.90;100293.94;5044984;28;20204;-77
2021/05/01 00:07:57;;;;;;;27.23;24.83;;;;;;;7.84;78.25;100287.00;5047484;28;20248;-75
2021/05/01 00:10:23;;;;;;;27.33;24.63;;;;;;;7.79;79.09;100294.00;5044703;28;20195;-77
2021/05/01 00:12:49;;;;;;;28.77;25.90;;;;;;;7.83;78.61;100293.09;5049925;28;20239;-76
2021/05/01 00:15:15;;;;;;;27.77;25.33;;;;;;;7.85;78.83;100285.25;5051433;28;20597;-76
2021/05/01 00:17:41;;;;;;;25.53;23.13;;;;;;;7.81;77.84;100284.44;5057037;28;20237;-76
2021/05/01 00:20:08;;;;;;;24.30;22.27;;;;;;;7.72;78.53;100280.19;5060940;28;20209;-77
2021/05/01 00:22:35;;;;;;;23.43;21.23;;;;;;;7.77;77.53;100272.38;5042507;28;20205;-76
2021/05/01 00:25:01;;;;;;;24.43;22.23;;;;;;;7.68;78.36;100270.72;5052450;28;20194;-77
2021/05/01 00:27:27;;;;;;;25.97;23.67;;;;;;;7.63;78.11;100271.63;5054359;28;20300;-77
2021/05/01 00:29:53;;;;;;;23.83;21.87;;;;;;;7.53;78.89;100270.84;5045019;28;20312;-76
2021/05/01 00:32:18;;;;;;;26.63;24.23;;;;;;;7.47;79.02;100269.19;5046178;28;20197;-76
2021/05/01 00:34:44;;;;;;;25.17;22.87;;;;;;;7.39;79.40;100276.16;5054085;28;20228;-76
2021/05/01 00:37:10;;;;;;;25.70;23.53;;;;;;;7.35;79.70;100270.16;5045407;28;20288;-77
2021/05/01 00:39:37;;;;;;;26.03;23.60;;;;;;;7.25;79.52;100262.44;5054141;28;20250;-77
2021/05/01 00:42:03;;;;;;;25.77;23.20;;;;;;;7.23;79.27;100262.44;5053843;28;20212;-77
2021/05/01 00:44:29;;;;;;;26.53;24.20;;;;;;;7.20;79.67;100259.88;5045978;28;20250;-77
2021/05/01 00:46:55;;;;;;;24.50;22.40;;;;;;;7.25;78.51;100258.09;5053003;28;20224;-76
2021/05/01 00:49:21;;;;;;;26.03;23.70;;;;;;;7.18;79.25;100255.59;5065153;28;20221;-77
2021/05/01 00:51:46;;;;;;;27.43;24.90;;;;;;;7.10;79.87;100250.47;5051757;28;20206;-77
2021/05/01 00:54:12;;;;;;;25.77;23.33;;;;;;;7.11;79.80;100252.16;5044235;28;20687;-76
2021/05/01 00:56:40;;;;;;;25.50;23.13;;;;;;;7.05;79.66;100254.81;5054335;28;20254;-77
2021/05/01 00:59:06;;;;;;;24.20;21.93;;;;;;;7.11;80.04;100249.56;5053676;28;20249;-76
2021/05/01 01:01:32;;;;;;;24.77;22.43;;;;;;;7.16;80.00;100251.25;5053504;28;20236;-77
2021/05/01 01:03:58;;;;;;;23.60;21.30;;;;;;;7.20;80.41;100253.84;5045017;28;20202;-77
2021/05/01 01:06:24;;;;;;;23.80;21.70;;;;;;;7.24;80.62;100259.00;5045205;28;20233;-77
2021/05/01 01:08:50;;;;;;;25.80;23.40;;;;;;;7.27;80.59;100255.50;5045135;28;20221;-76
2021/05/01 01:11:16;;;;;;;25.50;23.20;;;;;;;7.26;81.05;100257.25;5045561;28;20644;-78
2021/05/01 01:13:42;;;;;;;24.77;22.53;;;;;;;7.21;81.56;100258.16;5044991;28;20279;-78
2021/05/01 01:16:08;;;;;;;23.57;21.57;;;;;;;7.29;81.28;100254.59;5052843;28;20201;-77
2021/05/01 01:18:34;;;;;;;24.17;22.10;;;;;;;7.34;81.32;100254.59;5050936;28;20214;-77
2021/05/01 01:21:03;;;;;;;25.23;23.07;;;;;;;7.38;80.67;100253.69;5049462;28;20211;-77
2021/05/01 01:23:31;;;;;;;24.80;22.30;;;;;;;7.41;81.31;100248.44;5053112;28;20219;-77
2021/05/01 01:25:57;;;;;;;25.20;22.80;;;;;;;7.40;82.28;100248.47;5046183;28;20198;-77
2021/05/01 01:28:23;;;;;;;24.17;21.83;;;;;;;7.45;82.28;100247.56;5049311;28;20221;-78
2021/05/01 01:30:49;;;;;;;25.20;23.10;;;;;;;7.47;82.66;100251.00;5041321;28;20210;-78
2021/05/01 01:33:15;;;;;;;25.23;22.83;;;;;;;7.50;81.94;100243.16;5049236;28;20206;-77
2021/05/01 01:35:41;;;;;;;26.20;23.87;;;;;;;7.51;82.94;100242.31;5046079;28;20263;-77
2021/05/01 01:38:08;;;;;;;24.60;22.43;;;;;;;7.53;82.42;100243.16;5045103;28;20224;-78
2021/05/01 01:40:37;;;;;;;25.40;23.00;;;;;;;7.56;81.77;100237.06;5049534;28;20209;-77
2021/05/01 01:43:03;;;;;;;26.40;24.00;;;;;;;7.63;81.80;100232.66;5041692;28;20205;-78
2021/05/01 01:45:29;;;;;;;26.80;24.27;;;;;;;7.65;81.65;100234.38;5050760;28;20731;-77
2021/05/01 01:47:56;;;;;;;26.03;23.73;;;;;;;7.67;82.03;100234.34;5044681;28;20233;-77
2021/05/01 01:50:22;;;;;;;26.10;23.57;;;;;;;7.67;81.98;100235.22;5054338;28;20194;-78
2021/05/01 01:52:49;;;;;;;23.57;21.47;;;;;;;7.64;82.46;100243.03;5047405;28;20212;-77
2021/05/01 01:55:18;;;;;;;24.13;22.03;;;;;;;7.66;81.94;100240.44;5041247;28;20282;-78
2021/05/01 01:57:45;;;;;;;26.23;23.77;;;;;;;7.65;82.17;100228.31;5048877;28;20233;-77
2021/05/01 02:00:13;;;;;;;24.23;22.10;;;;;;;7.72;81.61;100235.16;5041159;28;20204;-77
2021/05/01 02:02:40;;;;;;;27.23;24.73;;;;;;;7.72;80.68;100235.16;5049036;28;20697;-76
2021/05/01 02:05:07;;;;;;;26.73;24.37;;;;;;;7.65;81.05;100236.97;5040649;28;20562;-77
2021/05/01 02:07:33;;;;;;;26.50;24.23;;;;;;;7.60;80.94;100232.69;5051180;28;20222;-78
2021/05/01 02:09:58;;;;;;;25.77;23.53;;;;;;;7.59;80.79;100231.84;5044517;28;20205;-77
2021/05/01 02:12:24;;;;;;;26.00;23.60;;;;;;;7.61;81.17;100226.63;5051883;28;20202;-77
2021/05/01 02:14:51;;;;;;;25.10;22.77;;;;;;;7.60;80.68;100227.50;5043584;28;20231;-77
2021/05/01 02:17:17;;;;;;;24.23;22.07;;;;;;;7.60;81.33;100230.97;5054899;28;20199;-76
2021/05/01 02:19:43;;;;;;;24.33;22.20;;;;;;;7.59;81.05;100225.78;5047214;28;20194;-78
2021/05/01 02:22:09;;;;;;;23.47;21.57;;;;;;;7.56;81.41;100227.53;5043800;28;20241;-78
2021/05/01 02:24:35;;;;;;;24.50;21.73;;;;;;;7.55;81.07;100220.63;5051621;28;20205;-75
2021/05/01 02:27:01;;;;;;;23.53;21.57;;;;;;;7.48;81.78;100215.50;5051947;28;20222;-77
2021/05/01 02:29:27;;;;;;;24.37;21.97;;;;;;;7.49;81.14;100215.50;5043549;28;20223;-77
2021/05/01 02:31:53;;;;;;;24.50;22.30;;;;;;;7.42;81.92;100219.00;5052119;28;20578;-77
2021/05/01 02:34:19;;;;;;;23.90;21.83;;;;;;;7.45;81.21;100211.22;5043598;28;20256;-77
2021/05/01 02:36:45;;;;;;;25.90;23.40;;;;;;;7.45;81.46;100208.63;5048759;28;20211;-78
2021/05/01 02:39:11;;;;;;;24.90;22.70;;;;;;;7.39;81.48;100203.44;5046327;28;20257;-77
2021/05/01 02:41:37;;;;;;;25.33;23.03;;;;;;;7.36;82.16;100208.69;5043144;28;20210;-78
2021/05/01 02:44:03;;;;;;;24.20;21.73;;;;;;;7.34;82.11;100211.28;5042527;28;20280;-78
2021/05/01 02:46:29;;;;;;;24.43;22.03;;;;;;;7.35;81.68;100200.06;5043792;28;20234;-77
2021/05/01 02:48:56;;;;;;;26.43;22.57;;;;;;;7.38;81.71;100203.50;5057437;28;20218;-78
2021/05/01 02:51:22;;;;;;;26.93;24.40;;;;;;;7.35;81.46;100200.06;5047682;28;20660;-78
2021/05/01 02:53:49;;;;;;;24.60;22.30;;;;;;;7.36;81.54;100193.97;5043323;28;20238;-78
2021/05/01 02:56:14;;;;;;;26.53;23.17;;;;;;;7.33;82.57;100191.41;5046820;28;20661;-77
2021/05/01 02:58:40;;;;;;;31.50;28.87;;;;;;;7.44;81.72;100190.44;5047278;28;20641;-77
2021/05/01 03:01:06;;;;;;;27.00;24.47;;;;;;;7.49;81.04;100192.13;5051691;28;20223;-77
2021/05/01 03:03:32;;;;;;;25.47;23.27;;;;;;;7.47;80.50;100190.41;5050961;28;20236;-78
2021/05/01 03:05:59;;;;;;;26.07;23.60;;;;;;;7.35;81.04;100186.19;5042401;28;20229;-77
2021/05/01 03:08:24;;;;;;;24.67;22.57;;;;;;;7.25;81.76;100181.97;5044381;28;20272;-78
2021/05/01 03:10:50;;;;;;;26.10;23.33;;;;;;;7.22;81.43;100189.78;5043233;28;20204;-78
2021/05/01 03:13:16;;;;;;;25.50;22.83;;;;;;;7.08;81.84;100189.91;5051031;28;20681;-78
2021/05/01 03:15:42;;;;;;;23.57;21.57;;;;;;;7.06;81.91;100192.53;5045093;28;20225;-77
2021/05/01 03:18:09;;;;;;;24.67;22.37;;;;;;;6.96;81.37;100183.09;5048757;28;20221;-77
2021/05/01 03:20:35;;;;;;;23.00;21.10;;;;;;;6.94;81.60;100179.66;5039978;28;20398;-77
2021/05/01 03:23:02;;;;;;;24.87;22.53;;;;;;;6.83;81.87;100186.66;5047075;28;20560;-77
2021/05/01 03:25:28;;;;;;;24.47;22.03;;;;;;;6.86;81.85;100186.66;5043318;28;20210;-78
2021/05/01 03:27:54;;;;;;;24.77;22.47;;;;;;;6.86;81.53;100191.84;5042789;28;20221;-77
2021/05/01 03:30:20;;;;;;;24.73;22.43;;;;;;;6.82;81.47;100195.28;5042710;28;20219;-78
2021/05/01 03:32:46;;;;;;;23.30;21.33;;;;;;;6.67;82.51;100185.91;5047041;28;20293;-78
2021/05/01 03:35:14;;;;;;;23.83;21.53;;;;;;;6.72;81.70;100195.38;5047599;28;20264;-78
2021/05/01 03:37:40;;;;;;;24.27;22.03;;;;;;;6.70;81.68;100191.94;5042498;28;21867;-78
2021/05/01 03:40:09;;;;;;;25.67;23.33;;;;;;;6.72;81.27;100195.38;5051243;28;20293;-77
2021/05/01 03:42:35;;;;;;;24.07;21.70;;;;;;;6.73;81.41;100193.63;5042777;28;20206;-76
2021/05/01 03:45:03;;;;;;;24.57;22.37;;;;;;;6.76;81.27;100197.06;5051455;28;20216;-77
2021/05/01 03:47:29;;;;;;;24.30;21.93;;;;;;;6.66;80.54;100197.13;5046754;28;20306;-77
2021/05/01 03:49:56;;;;;;;24.37;22.13;;;;;;;6.57;81.43;100190.28;5047296;28;20425;-78
2021/05/01 03:52:22;;;;;;;24.10;21.90;;;;;;;6.44;81.75;100197.31;5050958;28;20205;-78
2021/05/01 03:54:48;;;;;;;24.83;22.70;;;;;;;6.46;82.32;100200.75;5042043;28;20218;-78
2021/05/01 03:57:14;;;;;;;25.80;23.33;;;;;;;6.52;81.82;100200.72;5047939;28;20205;-77
2021/05/01 03:59:40;;;;;;;26.80;24.37;;;;;;;6.62;82.20;100195.44;5055349;28;20208;-77
2021/05/01 04:02:06;;;;;;;27.23;24.57;;;;;;;6.65;82.20;100196.28;5047005;28;20246;-77
2021/05/01 04:04:32;;;;;;;30.13;25.77;;;;;;;6.68;82.83;100193.69;5046490;28;20712;-77
2021/05/01 04:06:58;;;;;;;25.93;23.43;;;;;;;6.65;82.47;100200.63;5054981;28;20279;-78
2021/05/01 04:09:24;;;;;;;26.50;23.90;;;;;;;6.70;82.38;100197.13;5051347;28;20215;-76
2021/05/01 04:11:50;;;;;;;27.37;24.57;;;;;;;6.68;82.54;100192.81;5044827;28;20583;-78
2021/05/01 04:14:17;;;;;;;28.53;25.13;;;;;;;6.66;83.64;100191.94;5045385;28;20233;-78
2021/05/01 04:16:42;;;;;;;26.10;23.70;;;;;;;6.70;83.26;100196.25;5046558;28;20239;-77
2021/05/01 04:19:08;;;;;;;29.93;25.87;;;;;;;6.81;83.87;100197.03;5046576;28;20637;-78
2021/05/01 04:21:34;;;;;;;28.47;23.63;;;;;;;6.94;83.89;100198.66;5054363;28;20198;-78
2021/05/01 04:24:00;;;;;;;29.30;26.20;;;;;;;6.97;83.55;100202.97;5045499;28;20278;-77
2021/05/01 04:26:26;;;;;;;32.43;26.10;;;;;;;7.08;82.81;100213.28;5053906;28;20209;-77
2021/05/01 04:28:52;;;;;;;29.63;26.50;;;;;;;7.10;82.91;100196.81;5046166;28;20692;-79
2021/05/01 04:31:19;;;;;;;33.33;28.93;;;;;;;6.77;82.91;100203.13;5046117;28;20203;-77
2021/05/01 04:33:45;;;;;;;30.67;27.30;;;;;;;6.86;83.25;100203.06;5053731;28;20206;-78
2021/05/01 04:36:11;;;;;;;31.63;25.93;;;;;;;6.95;82.78;100195.19;5045819;28;20205;-79
2021/05/01 04:38:37;;;;;;;28.20;25.33;;;;;;;7.01;83.38;100191.69;5045592;28;20228;-78
2021/05/01 04:41:03;;;;;;;29.47;26.43;;;;;;;7.07;83.01;100195.97;5045814;28;20621;-78
2021/05/01 04:43:29;;;;;;;29.57;25.93;;;;;;;7.02;84.08;100200.34;5053268;28;20199;-78
2021/05/01 04:45:55;;;;;;;31.77;28.33;;;;;;;7.05;83.74;100195.13;5042139;28;20249;-77
2021/05/01 04:48:23;;;;;;;30.93;27.10;;;;;;;7.11;83.56;100190.72;5056100;28;20222;-78
2021/05/01 04:50:50;;;;;;;29.13;26.03;;;;;;;7.31;83.35;100187.97;5056818;28;20206;-79
2021/05/01 04:53:16;;;;;;;29.30;26.23;;;;;;;7.36;83.65;100188.78;5042117;28;20239;-77
2021/05/01 04:55:41;;;;;;;30.03;27.07;;;;;;;7.44;83.10;100193.03;5050932;28;20253;-78
2021/05/01 04:58:07;;;;;;;29.60;26.43;;;;;;;7.51;82.82;100194.69;5046340;28;20304;-78
2021/05/01 05:00:33;;;;;;;30.97;27.77;;;;;;;7.55;82.27;100202.44;5046876;28;20677;-78
2021/05/01 05:02:59;;;;;;;27.90;25.33;;;;;;;7.64;81.94;100193.69;5051942;28;20710;-76
2021/05/01 05:05:26;;;;;;;28.73;26.03;;;;;;;7.72;82.34;100201.41;5048487;28;20229;-77
2021/05/01 05:07:52;;;;;;;28.03;25.37;;;;;;;7.73;82.19;100198.78;5041608;28;20228;-77
2021/05/01 05:10:17;;;;;;;28.23;25.27;;;;;;;7.81;81.54;100192.63;5053680;28;20229;-77
2021/05/01 05:12:44;;;;;;;31.20;26.13;;;;;;;7.87;81.54;100192.53;5044933;28;20214;-76
2021/05/01 05:15:10;;;;;;;28.50;25.70;;;;;;;7.85;81.84;100200.38;5044879;28;20227;-77
2021/05/01 05:17:36;;;;;;;29.33;26.47;;;;;;;7.88;82.81;100196.88;5057586;28;20236;-77
2021/05/01 05:20:03;;;;;;;28.47;25.67;;;;;;;7.91;82.09;100195.13;5048209;28;20207;-77
2021/05/01 05:22:29;;;;;;;30.43;27.37;;;;;;;7.99;81.53;100192.44;5052887;28;20203;-77
2021/05/01 05:24:55;;;;;;;26.90;24.43;;;;;;;8.07;81.36;100197.53;5046408;28;20206;-77
2021/05/01 05:27:21;;;;;;;31.73;26.70;;;;;;;8.11;81.35;100188.81;5043950;28;20249;-78
2021/05/01 05:29:50;;;;;;;30.63;27.37;;;;;;;8.12;80.38;100193.13;5053321;28;20298;-77
2021/05/01 05:32:17;;;;;;;31.37;27.90;;;;;;;8.11;80.14;100188.81;5044993;28;20297;-78
2021/05/01 05:34:43;;;;;;;29.30;26.47;;;;;;;8.05;79.68;100187.16;5081308;22;20246;-76
2021/05/01 05:37:09;;;;;;;31.77;28.23;;;;;;;8.11;80.01;100199.22;5064695;28;20212;-76
2021/05/01 05:39:36;;;;;;;29.73;26.67;;;;;;;8.13;80.39;100203.50;5063908;28;20201;-76
2021/05/01 05:42:02;;;;;;;27.80;25.20;;;;;;;8.23;79.92;100212.03;5065106;28;20655;-76
2021/05/01 05:44:28;;;;;;;26.97;24.53;;;;;;;8.33;79.94;100212.78;5051973;28;20752;-76
2021/05/01 05:46:55;;;;;;;29.37;26.23;;;;;;;8.38;79.82;100216.16;5047291;28;20292;-77
2021/05/01 05:49:21;;;;;;;27.10;24.40;;;;;;;8.55;78.45;100211.63;5049441;28;20211;-75
2021/05/01 05:51:46;;;;;;;27.17;24.73;;;;;;;8.64;78.85;100212.38;5052636;28;20253;-76
2021/05/01 05:54:12;;;;;;;25.43;23.17;;;;;;;8.78;78.56;100213.06;5044038;28;20329;-75
2021/05/01 05:56:39;;;;;;;25.20;23.00;;;;;;;8.87;77.71;100207.69;5049609;28;20242;-76
2021/05/01 05:59:06;;;;;;;24.17;22.03;;;;;;;8.97;77.35;100208.41;5041049;28;20682;-76
2021/05/01 06:01:37;;;;;;;24.70;22.60;;;;;;;9.05;77.25;100211.72;5055618;28;20213;-76
2021/05/01 06:04:08;;;;;;;22.90;21.03;;;;;;;9.12;76.77;100209.91;5054790;28;20255;-76
2021/05/01 06:06:38;;;;;;;24.97;22.67;;;;;;;9.16;76.69;100206.38;5043999;28;20226;-75
2021/05/01 06:09:04;;;;;;;23.30;21.27;;;;;;;9.22;75.85;100206.25;5043588;28;20701;-75
2021/05/01 06:11:30;;;;;;;24.40;22.00;;;;;;;9.25;76.77;100207.94;5051635;28;20228;-74
2021/05/01 06:14:03;;;;;;;23.43;21.43;;;;;;;9.31;75.94;100210.44;5043611;28;20263;-75
2021/05/01 06:16:30;;;;;;;23.43;21.30;;;;;;;9.39;74.75;100203.34;5043426;28;20248;-74
2021/05/01 06:18:56;;;;;;;24.13;21.80;;;;;;;9.35;75.01;100204.28;5042509;28;20207;-76
2021/05/01 06:21:22;;;;;;;22.43;20.70;;;;;;;9.41;75.86;100206.78;5045823;28;20235;-76
2021/05/01 06:23:48;;;;;;;22.80;21.00;;;;;;;9.43;76.40;100206.75;5042001;28;20239;-77
2021/05/01 06:26:15;;;;;;;22.37;20.57;;;;;;;9.53;76.26;100198.75;5043822;28;20194;-76
2021/05/01 06:28:41;;;;;;;22.80;20.87;;;;;;;9.58;76.74;100200.41;5054330;28;20204;-75
2021/05/01 06:31:08;;;;;;;20.93;19.33;;;;;;;9.63;75.21;100201.16;5061102;28;20692;-76
2021/05/01 06:33:38;;;;;;;21.33;19.63;;;;;;;9.66;74.41;100196.75;5063498;28;20673;-76
2021/05/01 06:36:05;;;;;;;20.13;18.53;;;;;;;9.68;74.35;100200.19;5063701;28;20210;-76
2021/05/01 06:38:33;;;;;;;19.43;17.87;;;;;;;9.62;74.00;100200.31;5059300;28;20226;-75
2021/05/01 06:41:05;;;;;;;20.07;18.40;;;;;;;9.66;73.97;100203.72;5057752;28;20210;-76
2021/05/01 06:43:44;;;;;;;21.63;20.03;;;;;;;9.64;74.44;100210.72;5059729;28;20788;-76
2021/05/01 06:46:15;;;;;;;20.07;18.47;;;;;;;9.66;73.99;100211.56;5058247;28;20199;-77
2021/05/01 06:48:41;;;;;;;19.00;17.47;;;;;;;9.67;74.08;100201.09;5058354;28;20571;-76
2021/05/01 06:51:07;;;;;;;18.93;17.53;;;;;;;9.67;73.71;100213.25;5061696;28;20303;-77
2021/05/01 06:53:35;;;;;;;19.37;17.80;;;;;;;9.72;73.74;100201.84;5060601;28;20225;-76
2021/05/01 06:56:04;;;;;;;19.27;17.73;;;;;;;9.75;73.36;100206.16;5058681;28;20227;-76
2021/05/01 06:58:31;;;;;;;20.53;18.93;;;;;;;9.82;72.48;100205.16;5061673;28;20666;-75
2021/05/01 07:00:58;;;;;;;18.97;17.40;;;;;;;9.83;72.56;100195.56;5062355;28;20208;-75
2021/05/01 07:03:28;;;;;;;19.70;18.20;;;;;;;9.85;73.42;100206.81;5063348;28;20223;-76
2021/05/01 07:05:56;;;;;;;20.23;18.57;;;;;;;9.96;72.82;100204.88;5065791;28;20240;-75
2021/05/01 07:08:22;;;;;;;19.90;18.00;;;;;;;10.02;72.65;100207.34;5059305;28;20208;-74
2021/05/01 07:10:47;;;;;;;18.93;17.53;;;;;;;10.06;71.66;100215.97;5061210;28;20221;-76
2021/05/01 07:13:14;;;;;;;19.90;18.30;;;;;;;9.94;72.88;100211.88;5056099;28;20196;-75
2021/05/01 07:15:41;;;;;;;20.17;18.33;;;;;;;10.03;73.71;100208.19;5056762;28;20260;-76
2021/05/01 07:18:07;;;;;;;19.87;18.37;;;;;;;10.05;73.27;100203.81;5057834;28;20289;-76
2021/05/01 07:20:33;;;;;;;19.63;18.13;;;;;;;10.11;71.60;100195.88;5060335;28;20678;-76
2021/05/01 07:22:59;;;;;;;19.47;17.87;;;;;;;10.07;71.73;100192.47;5052442;28;20205;-76
2021/05/01 07:25:25;;;;;;;17.73;16.43;;;;;;;10.16;70.04;100182.75;5055696;28;20227;-77
2021/05/01 07:27:54;;;;;;;18.57;17.23;;;;;;;10.02;69.64;100189.09;5058914;28;20238;-74
2021/05/01 07:30:23;;;;;;;18.73;17.23;;;;;;;10.19;70.43;100195.69;5060581;28;20662;-76
2021/05/01 07:32:50;;;;;;;19.07;17.57;;;;;;;10.05;70.97;100190.78;5065751;28;20202;-75
2021/05/01 07:35:18;;;;;;;19.67;18.20;;;;;;;10.02;70.38;100193.47;5069991;28;20228;-74
2021/05/01 07:37:49;;;;;;;19.97;18.20;;;;;;;10.03;71.11;100179.53;5070623;28;20208;-75
2021/05/01 07:40:21;;;;;;;18.63;17.33;;;;;;;10.19;70.85;100188.75;5066906;28;20207;-75
2021/05/01 07:42:50;;;;;;;20.30;18.40;;;;;;;10.10;71.19;100186.34;5069155;28;20610;-78
2021/05/01 07:45:20;;;;;;;19.67;18.00;;;;;;;10.18;70.51;100189.63;5068977;28;20264;-74
2021/05/01 07:47:49;;;;;;;19.87;18.33;;;;;;;10.26;71.53;100195.53;5069196;28;20202;-77
2021/05/01 07:50:15;;;;;;;18.90;17.40;;;;;;;10.22;71.39;100199.09;5063132;28;20198;-76
2021/05/01 07:52:41;;;;;;;20.37;18.87;;;;;;;10.12;71.98;100189.78;5061241;28;20256;-76
2021/05/01 07:55:08;;;;;;;35.90;29.60;;;;;;;9.82;73.23;100192.13;5064405;28;20288;-76
2021/05/01 07:57:34;;;;;;;24.07;22.03;;;;;;;9.74;74.82;100186.19;5063435;28;20235;-77
2021/05/01 08:00:00;;;;;;;22.57;20.33;;;;;;;9.75;74.09;100187.91;5066150;28;20210;-76
2021/05/01 08:02:26;;;;;;;21.00;19.40;;;;;;;9.85;74.31;100183.38;5066873;28;20234;-76
2021/05/01 08:04:52;;;;;;;20.47;18.87;;;;;;;10.00;73.70;100187.41;5064399;28;20245;-77
2021/05/01 08:07:18;;;;;;;21.57;19.97;;;;;;;10.02;73.46;100183.03;5049018;28;20213;-76
2021/05/01 08:09:44;;;;;;;21.30;19.67;;;;;;;10.06;74.07;100179.47;5062557;28;20695;-75
2021/05/01 08:12:10;;;;;;;22.00;19.97;;;;;;;10.07;72.98;100178.59;5072178;28;20238;-74
2021/05/01 08:14:36;;;;;;;20.43;18.87;;;;;;;9.88;72.44;100183.31;5065837;28;20227;-76
2021/05/01 08:17:02;;;;;;;23.43;21.27;;;;;;;9.79;72.14;100180.88;5058264;28;20282;-76
2021/05/01 08:19:28;;;;;;;22.17;20.17;;;;;;;9.96;72.22;100184.00;5045896;28;20201;-74
2021/05/01 08:21:54;;;;;;;21.77;19.97;;;;;;;9.92;70.99;100175.38;5074849;28;20214;-76
2021/05/01 08:24:20;;;;;;;21.07;19.37;;;;;;;10.12;71.77;100179.34;5087202;28;20227;-76
2021/05/01 08:26:45;;;;;;;21.63;19.83;;;;;;;10.32;71.57;100177.19;5057054;28;20226;-76
2021/05/01 08:29:12;;;;;;;21.00;19.20;;;;;;;10.48;69.61;100175.06;5056902;28;20239;-76
2021/05/01 08:31:38;;;;;;;21.63;19.87;;;;;;;10.66;69.76;100173.81;5065671;28;20237;-76
2021/05/01 08:34:04;;;;;;;21.13;19.53;;;;;;;10.72;68.90;100171.06;5057355;28;20350;-75
2021/05/01 08:36:30;;;;;;;21.97;20.27;;;;;;;10.75;69.48;100172.72;5052624;28;20223;-76
2021/05/01 08:38:56;;;;;;;20.60;19.07;;;;;;;10.63;67.75;100180.88;5049196;28;20312;-76
2021/05/01 08:41:22;;;;;;;20.63;19.10;;;;;;;10.66;68.26;100180.78;5046904;28;20196;-76
2021/05/01 08:43:47;;;;;;;20.87;19.13;;;;;;;10.51;67.72;100185.47;5044751;28;20232;-76
2021/05/01 08:46:20;;;;;;;20.20;18.37;;;;;;;10.63;68.65;100186.94;5048482;28;20284;-76
2021/05/01 08:48:47;;;;;;;20.60;18.90;;;;;;;10.82;67.38;100189.09;5045483;28;20238;-77
2021/05/01 08:51:14;;;;;;;21.10;19.33;;;;;;;10.77;66.43;100189.22;5061769;28;20570;-80
2021/05/01 08:53:40;;;;;;;20.20;18.70;;;;;;;10.89;66.06;100186.31;5064746;28;20323;-75
2021/05/01 08:56:06;;;;;;;20.47;18.77;;;;;;;10.79;64.64;100186.56;5062022;28;20292;-76
2021/05/01 08:58:32;;;;;;;20.23;18.37;;;;;;;11.00;65.55;100177.34;5062022;28;20221;-77
2021/05/01 09:00:59;;;;;;;19.97;18.33;;;;;;;11.26;65.11;100171.47;5062572;28;20293;-75
2021/05/01 09:03:26;;;;;;;19.43;17.97;;;;;;;11.57;65.11;100161.03;5065999;28;20268;-77
2021/05/01 09:05:55;;;;;;;20.93;19.37;;;;;;;11.38;63.38;100162.44;5060921;28;20203;-75
2021/05/01 09:08:23;;;;;;;19.63;18.13;;;;;;;11.56;63.46;100161.09;5062805;28;20209;-76
2021/05/01 09:10:50;;;;;;;19.13;17.50;;;;;;;11.69;63.50;100162.47;5061680;28;20205;-77
2021/05/01 09:13:18;;;;;;;17.93;16.57;;;;;;;11.76;61.49;100164.00;5061953;28;20199;-74
2021/05/01 09:15:59;;;;;;;20.47;18.90;;;;;;;11.58;62.54;100167.16;5058932;28;20223;-76
2021/05/01 09:18:26;;;;;;;20.03;18.47;;;;;;;11.57;62.14;100168.88;5058696;28;20200;-76
2021/05/01 09:20:52;;;;;;;19.63;18.13;;;;;;;11.67;62.48;100172.09;5061364;28;20622;-75
2021/05/01 09:23:19;;;;;;;18.87;17.47;;;;;;;11.72;62.49;100165.00;5051226;28;20671;-77
2021/05/01 09:25:50;;;;;;;18.87;17.47;;;;;;;11.55;62.16;100169.84;5048626;28;20296;-77
2021/05/01 09:28:17;;;;;;;19.37;17.87;;;;;;;11.56;63.70;100166.34;5053238;28;20200;-76
2021/05/01 09:30:59;;;;;;;21.47;19.77;;;;;;;11.59;63.23;100163.63;5054068;28;20211;-76
2021/05/01 09:33:28;;;;;;;20.27;18.57;;;;;;;11.71;63.02;100165.88;5066450;28;20733;-77
2021/05/01 09:36:06;;;;;;;19.80;18.30;;;;;;;11.95;62.93;100177.44;5045167;28;20212;-76
2021/05/01 09:38:35;;;;;;;19.67;18.13;;;;;;;12.06;61.27;100175.38;5044868;28;20196;-77
2021/05/01 09:41:11;;;;;;;21.60;19.80;;;;;;;11.90;65.12;100179.34;5044075;28;20202;-76
2021/05/01 09:43:53;;;;;;;22.10;20.30;;;;;;;11.69;64.34;100178.16;5046286;28;20258;-76
2021/05/01 09:46:19;;;;;;;23.57;21.53;;;;;;;11.95;65.02;100180.03;5044855;28;20261;-76
2021/05/01 09:49:02;;;;;;;21.63;19.83;;;;;;;11.85;64.46;100181.19;5052724;28;20213;-74
2021/05/01 09:51:31;;;;;;;21.40;19.80;;;;;;;11.93;64.95;100168.78;5042286;28;20218;-75
2021/05/01 09:53:58;;;;;;;21.97;20.23;;;;;;;11.75;63.31;100167.50;5056200;28;20695;-74
2021/05/01 09:56:24;;;;;;;21.70;19.93;;;;;;;11.98;63.09;100169.50;5048959;28;20833;-76
2021/05/01 09:58:51;;;;;;;22.50;20.80;;;;;;;11.77;63.43;100165.72;5046173;28;20258;-76
2021/05/01 10:01:18;;;;;;;20.77;19.20;;;;;;;11.96;60.87;100168.69;5049500;28;20260;-76
2021/05/01 10:03:44;;;;;;;20.40;18.83;;;;;;;12.27;61.76;100158.19;5046310;28;20260;-75
2021/05/01 10:06:16;;;;;;;18.50;17.13;;;;;;;12.59;59.02;100155.47;5043478;28;20204;-76
2021/05/01 10:08:42;;;;;;;19.63;18.03;;;;;;;13.01;58.24;100152.34;5040802;28;20203;-74
2021/05/01 10:11:10;;;;;;;18.63;17.23;;;;;;;13.31;55.87;100155.72;5041315;28;20207;-76
2021/05/01 10:13:47;;;;;;;17.13;15.77;;;;;;;13.33;52.89;100156.50;5047742;28;20222;-77
2021/05/01 10:16:13;;;;;;;18.30;16.80;;;;;;;12.84;53.51;100153.78;5048705;28;20698;-77
2021/05/01 10:18:45;;;;;;;18.73;17.13;;;;;;;12.76;56.00;100152.31;5052549;28;20222;-75
2021/05/01 10:21:24;;;;;;;20.03;18.53;;;;;;;12.39;56.85;100162.19;5043838;28;20208;-75
2021/05/01 10:23:50;;;;;;;18.30;16.90;;;;;;;12.46;55.94;100157.59;5046315;28;20224;-76
2021/05/01 10:26:16;;;;;;;18.37;17.03;;;;;;;12.50;57.04;100164.47;5041245;28;20690;-75
2021/05/01 10:28:46;;;;;;;20.67;18.97;;;;;;;12.56;58.72;100163.41;5051978;28;20235;-76
2021/05/01 10:31:12;;;;;;;21.83;19.97;;;;;;;12.65;58.38;100168.38;5047038;28;20753;-76
2021/05/01 10:33:45;;;;;;;21.67;19.97;;;;;;;12.71;58.51;100158.53;5044376;28;20235;-77
2021/05/01 10:36:15;;;;;;;20.17;18.53;;;;;;;12.69;58.71;100151.66;5051860;28;20235;-76
2021/05/01 10:38:42;;;;;;;21.93;19.93;;;;;;;12.69;58.67;100151.66;5051895;28;20199;-77
2021/05/01 10:41:15;;;;;;;21.27;19.67;;;;;;;12.75;59.86;100142.75;5043763;28;20243;-77
2021/05/01 10:43:48;;;;;;;22.63;20.93;;;;;;;11.96;60.80;100153.00;5035563;28;20229;-76
2021/05/01 10:46:14;;;;;;;27.53;24.83;;;;;;;11.83;66.61;100165.56;5043315;28;20197;-77
2021/05/01 10:48:48;;;;;;;29.13;26.43;;;;;;;11.81;67.77;100164.72;5051670;28;20203;-77
2021/05/01 10:51:15;;;;;;;32.00;28.47;;;;;;;11.76;68.15;100164.00;5043901;28;20204;-77
2021/05/01 10:53:43;;;;;;;30.67;27.67;;;;;;;11.64;67.90;100157.38;5042889;28;20219;-77
2021/05/01 10:56:11;;;;;;;30.33;27.63;;;;;;;11.70;67.96;100161.56;5052396;28;20568;-77
2021/05/01 10:58:39;;;;;;;30.17;27.17;;;;;;;11.84;67.48;100163.78;5041323;28;20247;-77
2021/05/01 11:01:07;;;;;;;28.50;25.93;;;;;;;12.01;67.28;100164.19;5043508;28;20208;-77
2021/05/01 11:03:41;;;;;;;27.77;25.07;;;;;;;12.19;66.59;100159.31;5041744;28;20214;-77
2021/05/01 11:06:08;;;;;;;26.77;24.47;;;;;;;12.20;65.41;100161.88;5042776;28;20230;-76
2021/05/01 11:08:41;;;;;;;27.60;25.17;;;;;;;11.87;65.64;100169.81;5049424;28;20210;-75
2021/05/01 11:11:12;;;;;;;29.60;27.03;;;;;;;11.93;66.50;100166.16;5045876;28;20199;-77
2021/05/01 11:13:41;;;;;;;28.00;25.50;;;;;;;12.09;66.08;100171.81;5051017;28;20223;-76